Impacts TAF Board
For situational awareness. Not to be used for flight planning purposes.
IDs:

KPHX - Phoenix/Sky Harbor, AZ, US

Issued at 1507 UTC 15 Oct 2018
Updated at 1507 UTC 15 Oct 2018
Potential Impact None Slight Moderate High
Time1451Z 15/16Z 15/17Z 15/18Z 15/19Z 15/20Z 15/21Z 15/22Z 15/23Z 16/00Z 16/01Z 16/02Z 16/03Z 16/04Z>>
Type OBS PRVL PRVL PRVL PRVL PRVL PRVL PRVL PRVL PRVL
  [PRB30]  
PRVL
  [PRB30]  
PRVL
  [PRB30]  
PRVL
  [PRB30]  
PRVL
  [PRB30]  
VIS 10 >6 >6 >6 >6 >6 >6 >6 >6 >6 >6 >6 >6 >6
CIG 55 60 60 60 60 60 60 100 100 100
  [60]  
100
  [60]  
100
  [60]  
100
  [60]  
100
  [60]  
Cover BKN BKN BKN BKN BKN BKN BKN BKN BKN BKN
  [BKN]  
BKN
  [BKN]  
BKN
  [BKN]  
BKN
  [BKN]  
BKN
  [BKN]  
FltCat VFR VFR VFR VFR VFR VFR VFR VFR VFR VFR
  [VFR]  
VFR
  [VFR]  
VFR
  [VFR]  
VFR
  [VFR]  
VFR
  [VFR]  
WX -- -- -- -- -- -- -- VCSH VCSH VCSH
  [-SHRA]  
VCSH
  [-SHRA]  
VCSH
  [-SHRA]  
VCSH
  [-SHRA]  
VCSH
  [-SHRA]  
WDir 40 50 50 50 50 50 50 70 70 70
[70]
70
[70]
70
[70]
70
[70]
70
[70]
WSpd 9 10 10 10 10 10 10 13 13 13
  [13]  
13
  [13]  
13
  [13]  
13
  [13]  
13
  [13]  
WGst -- -- -- -- -- -- -- 23 23 23
  [23]  
23
  [23]  
23
  [23]  
23
  [23]  
23
  [23]  
Raw TAF
KPHX 151507Z 1515/1618 05010KT P6SM FEW040 BKN060
  FM152200 07013G23KT P6SM VCSH SCT060 BKN100
  PROB30 1600/1606 -SHRA BKN060
  FM160600 07015KT P6SM -SHRA BKN050 OVC070


Raw METAR
KPHX 151451Z 04009KT 10SM FEW040 BKN055 19/04 A2999 RMK AO2 SLP144 T01890039 53016
KPHX 151351Z 06010KT 10SM FEW040 BKN050 18/04 A2997 RMK AO2 SLP137 SHRA DSNT SE T01830044
KPHX 151251Z 08008KT 10SM FEW040 SCT050 SCT100 19/11 A2996 RMK AO2 SLP134 T01890111 $

METAR Board
Radar Display
Forecast Discussion
For situational awareness. Not to be used for flight planning purposes.